Aérodrome :
LOGIN :

S'inscrire | Disclaimer

   EN    FR    IT 

 










Légende :    VFR   VFR Marginal   IFR   IFR Intensif   IFR Très Intensif
Visi : 
Plafond : 
>= 8 km
>= 3000ft
5 à 8 km
1000 à 3000 ft
1500m à 5 km
500 à 1000 ft
800 à 1500m
200 à 500 ft
< 800m
< 200 ft
Symboles :   Orages  Brouillard  Fortes neiges  Fortes précipitations  Vent > 20 kt
SIGMETs :   Divers  Orages  Givrage  Turbulence  Onde Orograph.  Cendres Volcan.






- Altitude de l'aérodrome : 1504 ft
- Code IATA : PNA


LEPP - Noain Pamplona

DERNIER METAR :
  • 221000Z 21004KT 150V280 9999 FEW030 SCT036 SCT045TCU 18/12 Q1016

METARs EXPIRÉS :
  • 220930Z 31002KT 9999 FEW030 SCT045TCU 19/12 Q1016
  • 220900Z 33001KT 9999 SCT045 18/12 Q1016
  • 220830Z 12001KT 9999 FEW010 SCT045 17/12 Q1016
  • 220800Z 30002KT 9999 FEW010 SCT045 15/12 Q1016
  • 220730Z 35001KT 9999 FEW010 SCT045 14/12 Q1016

TAF TAF LEPP
Valide du 22 à 09h jusqu'au 23 à 09h UTC


220800Z 2209/2309 34009KT 9999 SCT025 TX20/2214Z TN11/2305Z
PROB40
TEMPO 2209/2221 3000 -RADZ BKN010
TEMPO 2213/2219 34015G25KT
PROB40
TEMPO 2221/2306 3000 BR BKN010
PROB30
TEMPO 2300/2306 3000 RA SHRA SCT030TCU



MET'MAP, la Météo Aéronautique d'un coup d'oeil ! - Copyright ORBIFLY Décembre 2007 - Disclaimer

ORBIFLY MET'MAP TEAM :

Programmation & Développement : Alexandra Zaïnal
Sur une idée originale de : Baudouin d'Aumeries
Assistance à la programmation : Marc-Olivier Méhu
Soutien technique & logistique : Manuel Goepfert

Contact : metmap@orbifly.com




SOURCES & CREDITS :

   NOAA